Terminal Aerodrome Forecast
Issued by NWS

Home | Current Version | Previous Version | Text Only | Print | Product List | Glossary Off
Versions: 1 2 3 4 5 6 7 8 9 10 11 12 13 14 15 16 17 18 19 20 21 22 23 24 25 26 27 28 29

000
FTUS43 KLOT 270543
TAFMDW
TAF
KMDW 270543Z 2706/2806 03007KT P6SM FEW006 OVC030
     FM270700 02004KT 6SM BR FEW006
     FM270900 02004KT 3SM BR SCT005
     FM271500 08006KT P6SM SCT150
     FM271900 08010KT P6SM SCT040
     FM280200 10005KT P6SM SCT080 BKN200=

USA.gov is the U.S. government's official web portal to all federal, state and local government web resources and services.